createdAt,value
2018-01-14T00:00:58.214Z,101283.72
2018-01-14T00:03:25.834Z,101283.09
2018-01-14T00:05:53.394Z,101283.62
2018-01-14T00:08:21.006Z,101292.27
2018-01-14T00:10:48.578Z,101286.67
2018-01-14T00:13:16.277Z,101287.20
2018-01-14T00:15:43.951Z,101288.58
2018-01-14T00:18:11.598Z,101295.95
2018-01-14T00:20:39.166Z,101287.58
2018-01-14T00:23:06.772Z,101291.16
2018-01-14T00:25:34.354Z,101286.73
2018-01-14T00:28:01.976Z,101290.55
2018-01-14T00:30:29.955Z,101295.11
2018-01-14T00:32:57.573Z,101296.06
2018-01-14T00:35:25.287Z,101295.22
2018-01-14T00:37:52.899Z,101294.48
2018-01-14T00:40:20.476Z,101273.63
2018-01-14T00:42:48.085Z,101290.73
2018-01-14T00:45:15.766Z,101296.77
2018-01-14T00:47:43.346Z,101290.84
2018-01-14T00:50:11.010Z,101287.89
2018-01-14T00:52:38.629Z,101289.05
2018-01-14T00:55:06.214Z,101294.14
2018-01-14T00:57:33.793Z,101292.88
2018-01-14T01:00:01.408Z,101291.83
2018-01-14T01:02:29.020Z,101293.59
2018-01-14T01:04:56.592Z,101283.02
2018-01-14T01:07:24.233Z,101288.71
2018-01-14T01:09:51.817Z,101285.14
2018-01-14T01:12:19.554Z,101296.09
2018-01-14T01:14:47.210Z,101285.50
2018-01-14T01:17:14.789Z,101287.00
2018-01-14T01:19:42.547Z,101284.66
2018-01-14T01:22:10.144Z,101285.55
2018-01-14T01:24:37.867Z,101282.88
2018-01-14T01:27:05.430Z,101279.45
2018-01-14T01:29:33.044Z,101278.26
2018-01-14T01:32:00.614Z,101281.20
2018-01-14T01:34:28.181Z,101282.94
2018-01-14T01:36:55.848Z,101281.75
2018-01-14T01:39:23.399Z,101285.27
2018-01-14T01:41:50.962Z,101281.88
2018-01-14T01:44:18.572Z,101282.14
2018-01-14T01:46:46.141Z,101275.32
2018-01-14T01:49:13.693Z,101275.69
2018-01-14T01:51:41.322Z,101277.10
2018-01-14T01:54:08.889Z,101273.98
2018-01-14T01:56:36.670Z,101274.82
2018-01-14T01:59:04.289Z,101274.73
2018-01-14T02:01:31.859Z,101269.89
2018-01-14T02:03:59.430Z,101282.52
2018-01-14T02:06:27.087Z,101278.82
2018-01-14T02:08:54.652Z,101276.06
2018-01-14T02:11:22.214Z,101279.72
2018-01-14T02:13:49.836Z,101274.80
2018-01-14T02:16:17.540Z,101270.59
2018-01-14T02:18:45.102Z,101272.98
2018-01-14T02:21:12.728Z,101264.18
2018-01-14T02:23:40.303Z,101264.97
2018-01-14T02:26:07.982Z,101265.80
2018-01-14T02:28:35.648Z,101271.23
2018-01-14T02:31:03.324Z,101269.09
2018-01-14T02:33:30.987Z,101270.84
2018-01-14T02:35:58.597Z,101272.22
2018-01-14T02:38:26.167Z,101277.83
2018-01-14T02:40:53.727Z,101268.16
2018-01-14T02:43:21.331Z,101268.11
2018-01-14T02:45:48.913Z,101267.00
2018-01-14T02:48:16.491Z,101261.25
2018-01-14T02:50:44.097Z,101262.84
2018-01-14T02:53:11.647Z,101266.41
2018-01-14T02:55:39.230Z,101268.72
2018-01-14T02:58:06.843Z,101266.55
2018-01-14T03:00:34.415Z,101265.94
2018-01-14T03:03:01.993Z,101260.31
2018-01-14T03:05:29.590Z,101257.52
2018-01-14T03:07:57.151Z,101255.50
2018-01-14T03:10:24.712Z,101260.45
2018-01-14T03:12:52.316Z,101256.70
2018-01-14T03:15:20.012Z,101256.60
2018-01-14T03:17:47.656Z,101257.83
2018-01-14T03:20:15.278Z,101249.41
2018-01-14T03:22:42.860Z,101257.44
2018-01-14T03:25:10.489Z,101261.38
2018-01-14T03:27:38.306Z,101261.61
2018-01-14T03:30:05.986Z,101254.86
2018-01-14T03:32:33.577Z,101263.50
2018-01-14T03:35:01.407Z,101266.50
2018-01-14T03:37:28.987Z,101267.27
2018-01-14T03:39:56.559Z,101265.73
2018-01-14T03:42:24.297Z,101263.73
2018-01-14T03:44:51.879Z,101261.88
2018-01-14T03:47:19.449Z,101263.55
2018-01-14T03:49:47.064Z,101264.46
2018-01-14T03:52:14.739Z,101273.25
2018-01-14T03:54:42.419Z,101265.30
2018-01-14T03:57:10.023Z,101269.09
2018-01-14T03:59:37.610Z,101263.72
2018-01-14T04:02:05.380Z,101263.97
2018-01-14T04:04:33.004Z,101268.28
2018-01-14T04:07:00.592Z,101266.69
2018-01-14T04:09:28.164Z,101267.95
2018-01-14T04:11:55.825Z,101265.73
2018-01-14T04:14:23.499Z,101270.63
2018-01-14T04:16:51.075Z,101275.72
2018-01-14T04:19:20.655Z,101275.36
2018-01-14T04:21:48.227Z,101274.80
2018-01-14T04:24:15.798Z,101277.20
2018-01-14T04:26:43.411Z,101277.87
2018-01-14T04:29:11.102Z,101282.45
2018-01-14T04:31:38.684Z,101289.98
2018-01-14T04:34:06.419Z,101285.18
2018-01-14T04:36:34.011Z,101285.28
2018-01-14T04:39:01.596Z,101287.41
2018-01-14T04:41:29.213Z,101299.13
2018-01-14T04:43:56.875Z,101299.39
2018-01-14T04:46:24.429Z,101298.27
2018-01-14T04:48:52.048Z,101300.00
2018-01-14T04:51:19.662Z,101301.07
2018-01-14T04:53:47.234Z,101304.19
2018-01-14T04:56:14.842Z,101306.11
2018-01-14T04:58:42.419Z,101298.80
2018-01-14T05:01:10.100Z,101308.33
2018-01-14T05:03:37.724Z,101311.55
2018-01-14T05:06:05.306Z,101311.24
2018-01-14T05:08:32.865Z,101319.37
2018-01-14T05:11:00.525Z,101320.79
2018-01-14T05:13:28.111Z,101323.98
2018-01-14T05:15:55.701Z,101325.84
2018-01-14T05:18:23.330Z,101319.36
2018-01-14T05:20:50.897Z,101319.23
2018-01-14T05:23:18.646Z,101327.19
2018-01-14T05:25:46.265Z,101327.52
2018-01-14T05:28:13.864Z,101332.47
2018-01-14T05:30:41.440Z,101314.11
2018-01-14T05:33:09.059Z,101327.52
2018-01-14T05:35:36.633Z,101335.29
2018-01-14T05:38:04.218Z,101334.87
2018-01-14T05:40:31.871Z,101336.56
2018-01-14T05:42:59.441Z,101332.02
2018-01-14T05:45:27.023Z,101335.58
2018-01-14T05:47:54.635Z,101341.10
2018-01-14T05:50:22.207Z,101333.42
2018-01-14T05:52:49.802Z,101336.35
2018-01-14T05:55:17.433Z,101334.10
2018-01-14T05:57:45.107Z,101328.17
2018-01-14T06:00:12.772Z,101329.47
2018-01-14T06:02:40.433Z,101329.47
2018-01-14T06:05:08.002Z,101339.11
2018-01-14T06:07:35.744Z,101339.56
2018-01-14T06:10:03.422Z,101336.37
2018-01-14T06:12:31.061Z,101341.53
2018-01-14T06:14:58.729Z,101343.42
2018-01-14T06:17:26.322Z,101344.45
2018-01-14T06:19:53.889Z,101348.21
2018-01-14T06:22:21.464Z,101343.97
2018-01-14T06:24:49.066Z,101351.87
2018-01-14T06:27:16.839Z,101349.66
2018-01-14T06:29:44.403Z,101347.14
2018-01-14T06:32:12.156Z,101357.27
2018-01-14T06:34:39.746Z,101358.05
2018-01-14T06:37:07.303Z,101358.52
2018-01-14T06:39:34.920Z,101357.45
2018-01-14T06:42:02.631Z,101355.36
2018-01-14T06:44:30.253Z,101345.84
2018-01-14T06:46:57.943Z,101354.30
2018-01-14T06:49:25.553Z,101345.72
2018-01-14T06:51:53.124Z,101353.09
2018-01-14T06:54:20.742Z,101354.23
2018-01-14T06:56:48.306Z,101357.70
2018-01-14T06:59:15.861Z,101362.61
2018-01-14T07:01:43.605Z,101361.16
2018-01-14T07:04:11.169Z,101365.41
2018-01-14T07:06:38.759Z,101364.09
2018-01-14T07:09:06.381Z,101362.61
2018-01-14T07:11:33.925Z,101365.42
2018-01-14T07:14:01.486Z,101369.06
2018-01-14T07:16:29.082Z,101368.78
2018-01-14T07:18:56.654Z,101368.36
2018-01-14T07:21:24.230Z,101376.55
2018-01-14T07:23:51.818Z,101382.01
2018-01-14T07:26:19.495Z,101382.29
2018-01-14T07:28:47.164Z,101391.98
2018-01-14T07:31:14.768Z,101393.66
2018-01-14T07:33:42.504Z,101391.39
2018-01-14T07:36:10.061Z,101395.23
2018-01-14T07:38:37.658Z,101399.13
2018-01-14T07:41:05.284Z,101401.45
2018-01-14T07:43:32.928Z,101398.29
2018-01-14T07:46:00.600Z,101406.02
2018-01-14T07:48:28.162Z,101401.52
2018-01-14T07:50:55.752Z,101406.19
2018-01-14T07:53:23.390Z,101399.34
2018-01-14T07:55:50.965Z,101403.25
2018-01-14T07:58:18.545Z,101405.28
2018-01-14T08:00:46.160Z,101413.45
2018-01-14T08:03:13.818Z,101410.67
2018-01-14T08:05:41.499Z,101414.60
2018-01-14T08:08:09.165Z,101415.61
2018-01-14T08:10:36.796Z,101418.87
2018-01-14T08:13:04.359Z,101419.84
2018-01-14T08:15:31.952Z,101421.92
2018-01-14T08:17:59.518Z,101432.23
2018-01-14T08:20:27.088Z,101429.20
2018-01-14T08:22:54.683Z,101431.69
2018-01-14T08:25:22.381Z,101433.13
2018-01-14T08:27:50.050Z,101431.22
2018-01-14T08:30:17.642Z,101439.11
2018-01-14T08:32:45.202Z,101435.66
2018-01-14T08:35:12.772Z,101437.28
2018-01-14T08:37:40.418Z,101436.41
2018-01-14T08:40:07.998Z,101437.25
2018-01-14T08:42:35.572Z,101438.58
2018-01-14T08:45:03.275Z,101437.13
2018-01-14T08:47:30.937Z,101442.66
2018-01-14T08:49:58.499Z,101439.11
2018-01-14T08:52:26.247Z,101431.04
2018-01-14T08:54:53.810Z,101431.91
2018-01-14T08:57:21.588Z,101431.08
2018-01-14T08:59:49.222Z,101422.80
2018-01-14T09:02:16.792Z,101422.67
2018-01-14T09:04:44.557Z,101423.77
2018-01-14T09:07:12.226Z,101427.98
2018-01-14T09:09:39.796Z,101428.72
2018-01-14T09:12:07.425Z,101432.59
2018-01-14T09:14:35.037Z,101433.25
2018-01-14T09:17:02.718Z,101432.02
2018-01-14T09:19:30.287Z,101426.62
2018-01-14T09:21:57.987Z,101415.38
2018-01-14T09:24:25.648Z,101418.02
2018-01-14T09:26:53.240Z,101422.67
2018-01-14T09:29:20.887Z,101419.63
2018-01-14T09:31:48.452Z,101415.72
2018-01-14T09:34:16.016Z,101420.94
2018-01-14T09:36:43.763Z,101416.75
2018-01-14T09:39:11.430Z,101414.18
2018-01-14T09:41:39.000Z,101412.23
2018-01-14T09:44:06.612Z,101405.56
2018-01-14T09:46:34.191Z,101409.80
2018-01-14T09:49:01.776Z,101409.30
2018-01-14T09:51:29.382Z,101403.47
2018-01-14T09:53:56.963Z,101407.70
2018-01-14T09:56:24.553Z,101406.94
2018-01-14T09:58:52.184Z,101401.59
2018-01-14T10:01:19.768Z,101401.78
2018-01-14T10:03:47.360Z,101399.83
2018-01-14T10:06:14.972Z,101392.67
2018-01-14T10:08:42.544Z,101394.89
2018-01-14T10:11:10.114Z,101392.60
2018-01-14T10:13:37.715Z,101387.42
2018-01-14T10:16:05.280Z,101383.23
2018-01-14T10:18:32.837Z,101390.55
2018-01-14T10:21:00.426Z,101375.67
2018-01-14T10:23:27.986Z,101376.28
2018-01-14T10:25:55.613Z,101365.20
2018-01-14T10:28:23.205Z,101366.15
2018-01-14T10:30:50.797Z,101363.52
2018-01-14T10:33:18.362Z,101369.13
2018-01-14T10:35:45.964Z,101365.83
2018-01-14T10:38:13.675Z,101364.77
2018-01-14T10:40:41.251Z,101363.22
2018-01-14T10:43:08.874Z,101359.70
2018-01-14T10:45:36.503Z,101356.88
2018-01-14T10:48:04.065Z,101355.63
2018-01-14T10:50:31.685Z,101353.68
2018-01-14T10:53:00.174Z,101352.13
2018-01-14T10:55:27.742Z,101352.81
2018-01-14T10:57:55.368Z,101352.00
2018-01-14T11:00:22.967Z,101342.30
2018-01-14T11:02:50.542Z,101342.96
2018-01-14T11:05:18.131Z,101337.73
2018-01-14T11:07:45.703Z,101332.13
2018-01-14T11:10:13.273Z,101334.50
2018-01-14T11:12:40.906Z,101341.26
2018-01-14T11:15:08.475Z,101330.23
2018-01-14T11:17:36.119Z,101332.83
2018-01-14T11:20:03.755Z,101320.27
2018-01-14T11:22:31.441Z,101321.58
2018-01-14T11:24:59.016Z,101319.91
2018-01-14T11:27:26.598Z,101318.31
2018-01-14T11:30:00.760Z,101316.62
2018-01-14T11:32:28.406Z,101307.61
2018-01-14T11:34:55.973Z,101312.73
2018-01-14T11:37:23.553Z,101306.60
2018-01-14T11:39:51.170Z,101318.30
2018-01-14T11:42:18.734Z,101311.87
2018-01-14T11:44:46.306Z,101311.75
2018-01-14T11:47:13.923Z,101297.86
2018-01-14T11:49:41.470Z,101300.52
2018-01-14T11:52:09.033Z,101295.73
2018-01-14T11:54:36.632Z,101304.58
2018-01-14T11:57:04.241Z,101299.55
2018-01-14T11:59:31.799Z,101303.85
2018-01-14T12:01:59.363Z,101298.27
2018-01-14T12:04:26.940Z,101307.84
2018-01-14T12:06:54.503Z,101306.62
2018-01-14T12:09:22.100Z,101313.29
2018-01-14T12:11:49.650Z,101314.74
2018-01-14T12:14:17.251Z,101311.19
2018-01-14T12:16:44.853Z,101304.35
2018-01-14T12:19:12.482Z,101315.16
2018-01-14T12:21:40.050Z,101317.12
2018-01-14T12:24:07.639Z,101317.16
2018-01-14T12:26:35.214Z,101314.66
2018-01-14T12:29:02.766Z,101312.44
2018-01-14T12:31:30.380Z,101316.58
2018-01-14T12:37:08.952Z,101328.39
2018-01-14T12:39:36.505Z,101320.11
2018-01-14T12:42:04.299Z,101319.43
2018-01-14T12:44:31.924Z,101324.03
2018-01-14T12:46:59.479Z,101322.75
2018-01-14T12:49:27.103Z,101315.73
2018-01-14T12:51:54.841Z,101303.35
2018-01-14T12:54:22.468Z,101309.92
2018-01-14T12:56:50.025Z,101310.66
2018-01-14T12:59:17.604Z,101320.56
2018-01-14T13:01:45.216Z,101316.96
2018-01-14T13:04:12.776Z,101321.07
2018-01-14T13:06:40.365Z,101318.16
2018-01-14T13:09:07.901Z,101327.67
2018-01-14T13:11:35.448Z,101329.44
2018-01-14T13:14:03.313Z,101329.73
2018-01-14T13:16:30.873Z,101326.98
2018-01-14T13:18:58.427Z,101328.73
2018-01-14T13:21:26.008Z,101334.30
2018-01-14T13:23:53.561Z,101337.58
2018-01-14T13:26:21.118Z,101332.81
2018-01-14T13:28:48.713Z,101338.63
2018-01-14T13:31:16.281Z,101338.75
2018-01-14T13:33:43.873Z,101340.82
2018-01-14T13:36:11.611Z,101341.12
2018-01-14T13:38:39.163Z,101343.45
2018-01-14T13:41:06.763Z,101344.77
2018-01-14T13:43:34.372Z,101346.53
2018-01-14T13:46:01.926Z,101344.04
2018-01-14T13:48:29.484Z,101332.94
2018-01-14T13:50:57.088Z,101337.38
2018-01-14T13:53:24.653Z,101335.78
2018-01-14T13:55:52.215Z,101344.25
2018-01-14T13:58:19.807Z,101324.79
2018-01-14T14:00:47.394Z,101341.47
2018-01-14T14:03:15.038Z,101334.52
2018-01-14T14:05:42.638Z,101337.41
2018-01-14T14:08:10.187Z,101332.62
2018-01-14T14:10:37.831Z,101328.69
2018-01-14T14:13:05.448Z,101327.69
2018-01-14T14:15:33.006Z,101326.73
2018-01-14T14:18:00.635Z,101327.77
2018-01-14T14:20:28.252Z,101323.16
2018-01-14T14:22:55.821Z,101325.37
2018-01-14T14:25:23.470Z,101327.03
2018-01-14T14:27:51.087Z,101325.95
2018-01-14T14:30:18.654Z,101325.84
2018-01-14T14:32:46.259Z,101326.33
2018-01-14T14:35:13.828Z,101315.48
2018-01-14T14:37:41.390Z,101316.99
2018-01-14T14:40:09.030Z,101323.75
2018-01-14T14:42:36.611Z,101324.84
2018-01-14T14:45:04.194Z,101332.81
2018-01-14T14:47:31.790Z,101336.26
2018-01-14T14:49:59.368Z,101336.34
2018-01-14T14:52:26.934Z,101318.98
2018-01-14T14:54:54.541Z,101330.89
2018-01-14T14:57:22.266Z,101326.46
2018-01-14T14:59:49.825Z,101331.50
2018-01-14T15:02:17.407Z,101330.41
2018-01-14T15:04:44.964Z,101328.50
2018-01-14T15:07:12.527Z,101322.63
2018-01-14T15:09:40.148Z,101328.55
2018-01-14T15:12:07.728Z,101331.78
2018-01-14T15:14:35.282Z,101327.94
2018-01-14T15:17:02.899Z,101321.00
2018-01-14T15:19:30.466Z,101329.82
2018-01-14T15:21:58.034Z,101344.11
2018-01-14T15:24:25.626Z,101334.11
2018-01-14T15:26:53.197Z,101334.63
2018-01-14T15:29:20.755Z,101344.58
2018-01-14T15:31:48.399Z,101347.52
2018-01-14T15:34:15.976Z,101351.21
2018-01-14T15:36:43.543Z,101355.69
2018-01-14T15:39:11.152Z,101354.20
2018-01-14T15:41:38.732Z,101350.56
2018-01-14T15:44:06.313Z,101349.55
2018-01-14T15:46:33.911Z,101353.08
2018-01-14T15:49:01.481Z,101354.55
2018-01-14T15:51:29.132Z,101355.37
2018-01-14T15:53:56.767Z,101355.13
2018-01-14T15:56:24.326Z,101356.63
2018-01-14T15:58:51.911Z,101339.69
2018-01-14T16:01:19.542Z,101339.21
2018-01-14T16:03:47.115Z,101343.87
2018-01-14T16:06:14.689Z,101341.73
2018-01-14T16:08:42.370Z,101329.27
2018-01-14T16:11:09.985Z,101329.95
2018-01-14T16:13:37.560Z,101330.22
2018-01-14T16:16:05.511Z,101331.01
2018-01-14T16:18:33.130Z,101321.72
2018-01-14T16:21:00.751Z,101331.66
2018-01-14T16:23:28.306Z,101340.42
2018-01-14T16:25:56.028Z,101342.25
2018-01-14T16:28:23.650Z,101341.42
2018-01-14T16:30:51.226Z,101340.98
2018-01-14T16:33:18.836Z,101337.43
2018-01-14T16:35:46.869Z,101341.91
2018-01-14T16:38:14.439Z,101328.00
2018-01-14T16:40:42.048Z,101343.11
2018-01-14T16:43:09.633Z,101345.59
2018-01-14T16:45:37.230Z,101358.08
2018-01-14T16:48:04.836Z,101357.56
2018-01-14T16:50:32.424Z,101372.42
2018-01-14T16:53:00.021Z,101364.03
2018-01-14T16:55:27.650Z,101360.12
2018-01-14T16:57:55.236Z,101352.55
2018-01-14T17:00:22.871Z,101359.53
2018-01-14T17:05:24.830Z,101357.59
2018-01-14T17:07:52.425Z,101360.85
2018-01-14T17:10:20.124Z,101357.19
2018-01-14T17:12:47.777Z,101355.77
2018-01-14T17:15:15.397Z,101360.80
2018-01-14T17:17:42.942Z,101360.22
2018-01-14T17:20:10.526Z,101356.42
2018-01-14T17:22:38.093Z,101361.08
2018-01-14T17:25:05.698Z,101357.33
2018-01-14T17:27:33.299Z,101351.80
2018-01-14T17:30:00.876Z,101352.39
2018-01-14T17:32:28.491Z,101337.02
2018-01-14T17:34:56.093Z,101336.84
2018-01-14T17:37:23.654Z,101328.25
2018-01-14T17:39:51.252Z,101337.52
2018-01-14T17:42:19.085Z,101344.52
2018-01-14T17:44:46.661Z,101352.67
2018-01-14T17:47:14.407Z,101349.53
2018-01-14T17:49:43.688Z,101340.30
2018-01-14T17:52:11.327Z,101343.95
2018-01-14T17:54:43.820Z,101351.00
2018-01-14T17:57:11.811Z,101343.53
2018-01-14T17:59:39.373Z,101339.66
2018-01-14T18:02:06.973Z,101337.36
2018-01-14T18:04:34.599Z,101344.00
2018-01-14T18:07:02.169Z,101349.66
2018-01-14T18:09:29.721Z,101351.36
2018-01-14T18:11:57.415Z,101339.84
2018-01-14T18:14:24.989Z,101354.55
2018-01-14T18:17:00.519Z,101352.25
2018-01-14T18:19:28.092Z,101355.33
2018-01-14T18:21:55.674Z,101348.73
2018-01-14T18:24:23.278Z,101349.70
2018-01-14T18:26:50.860Z,101346.66
2018-01-14T18:29:18.423Z,101348.75
2018-01-14T18:31:46.030Z,101350.03
2018-01-14T18:34:13.601Z,101353.90
2018-01-14T18:36:41.177Z,101354.69
2018-01-14T18:39:08.822Z,101353.72
2018-01-14T18:41:36.382Z,101358.41
2018-01-14T18:44:03.972Z,101353.35
2018-01-14T18:46:31.578Z,101354.27
2018-01-14T18:48:59.143Z,101354.38
2018-01-14T18:51:26.710Z,101357.09
2018-01-14T18:53:54.416Z,101361.30
2018-01-14T18:56:21.999Z,101359.98
2018-01-14T18:58:49.593Z,101368.29
2018-01-14T19:01:17.170Z,101368.20
2018-01-14T19:03:44.782Z,101368.45
2018-01-14T19:06:12.364Z,101369.63
2018-01-14T19:08:39.951Z,101364.48
2018-01-14T19:11:07.553Z,101374.23
2018-01-14T19:13:35.120Z,101380.48
2018-01-14T19:16:02.707Z,101379.94
2018-01-14T19:18:30.361Z,101380.86
2018-01-14T19:20:57.967Z,101376.05
2018-01-14T19:23:25.565Z,101372.23
2018-01-14T19:25:53.429Z,101372.73
2018-01-14T19:28:21.091Z,101363.61
2018-01-14T19:30:48.705Z,101366.11
2018-01-14T19:33:16.322Z,101359.33
2018-01-14T19:35:43.909Z,101362.19
2018-01-14T19:38:11.521Z,101366.79
2018-01-14T19:40:39.103Z,101372.58
2018-01-14T19:43:06.705Z,101371.23
2018-01-14T19:45:34.289Z,101372.86
2018-01-14T19:48:01.881Z,101374.86
2018-01-14T19:50:29.458Z,101367.58
2018-01-14T19:52:57.101Z,101367.60
2018-01-14T19:55:24.786Z,101368.73
2018-01-14T19:57:54.437Z,101360.19
2018-01-14T20:00:22.036Z,101367.03
2018-01-14T20:02:49.601Z,101358.45
2018-01-14T20:05:17.182Z,101360.35
2018-01-14T20:07:44.797Z,101355.85
2018-01-14T20:10:12.381Z,101356.34
2018-01-14T20:12:40.031Z,101363.21
2018-01-14T20:15:07.631Z,101376.09
2018-01-14T20:17:38.922Z,101368.91
2018-01-14T20:20:06.717Z,101363.34
2018-01-14T20:22:34.366Z,101363.58
2018-01-14T20:25:01.981Z,101367.38
2018-01-14T20:27:29.570Z,101366.36
2018-01-14T20:29:57.144Z,101363.39
2018-01-14T20:32:24.791Z,101367.03
2018-01-14T20:34:52.351Z,101369.33
2018-01-14T20:37:21.674Z,101370.58
2018-01-14T20:39:49.288Z,101363.27
2018-01-14T20:42:16.885Z,101362.63
2018-01-14T20:44:50.258Z,101363.84
2018-01-14T20:47:18.170Z,101374.25
2018-01-14T20:49:46.215Z,101372.95
2018-01-14T20:52:13.848Z,101358.39
2018-01-14T20:54:41.414Z,101373.91
2018-01-14T20:57:09.037Z,101370.77
2018-01-14T20:59:37.404Z,101369.08
2018-01-14T21:02:04.989Z,101352.98
2018-01-14T21:04:32.574Z,101361.37
2018-01-14T21:07:00.224Z,101356.82
2018-01-14T21:09:27.838Z,101359.45
2018-01-14T21:11:55.404Z,101357.69
2018-01-14T21:14:23.036Z,101358.51
2018-01-14T21:16:50.615Z,101353.12
2018-01-14T21:19:18.185Z,101347.55
2018-01-14T21:21:45.807Z,101342.61
2018-01-14T21:24:13.376Z,101344.34
2018-01-14T21:26:40.958Z,101342.39
2018-01-14T21:29:08.568Z,101344.12
2018-01-14T21:31:36.140Z,101343.89
2018-01-14T21:34:03.752Z,101343.13
2018-01-14T21:36:31.371Z,101349.59
2018-01-14T21:38:58.965Z,101347.39
2018-01-14T21:41:26.555Z,101348.05
2018-01-14T21:43:54.268Z,101342.92
2018-01-14T21:46:21.837Z,101345.28
2018-01-14T21:48:49.405Z,101356.11
2018-01-14T21:51:17.012Z,101348.36
2018-01-14T21:53:44.594Z,101351.44
2018-01-14T21:56:12.179Z,101365.63
2018-01-14T21:58:39.775Z,101357.43
2018-01-14T22:01:07.353Z,101341.77
2018-01-14T22:03:34.935Z,101325.36
2018-01-14T22:06:02.557Z,101334.95
2018-01-14T22:08:30.146Z,101340.58
2018-01-14T22:10:57.733Z,101333.27
2018-01-14T22:13:25.347Z,101340.60
2018-01-14T22:15:52.934Z,101339.55
2018-01-14T22:18:20.526Z,101341.73
2018-01-14T22:20:48.136Z,101329.83
2018-01-14T22:23:15.696Z,101334.92
2018-01-14T22:25:43.324Z,101321.48
2018-01-14T22:28:10.944Z,101316.75
2018-01-14T22:30:38.515Z,101306.52
2018-01-14T22:33:06.090Z,101306.20
2018-01-14T22:35:33.722Z,101309.25
2018-01-14T22:38:01.312Z,101305.02
2018-01-14T22:40:28.896Z,101310.91
2018-01-14T22:42:56.577Z,101305.11
2018-01-14T22:45:24.159Z,101304.51
2018-01-14T22:47:51.754Z,101300.59
2018-01-14T22:50:19.378Z,101299.28
2018-01-14T22:52:46.998Z,101299.89
2018-01-14T22:55:14.580Z,101301.29
2018-01-14T22:57:42.208Z,101306.20
2018-01-14T23:00:09.969Z,101310.55
2018-01-14T23:02:37.533Z,101309.61
2018-01-14T23:05:05.153Z,101302.95
2018-01-14T23:07:32.736Z,101307.55
2018-01-14T23:10:00.317Z,101308.54
2018-01-14T23:12:27.949Z,101285.36
2018-01-14T23:15:01.019Z,101300.17
2018-01-14T23:17:28.632Z,101298.92
2018-01-14T23:19:56.203Z,101297.38
2018-01-14T23:22:23.763Z,101298.33
2018-01-14T23:24:51.377Z,101301.16
2018-01-14T23:27:18.947Z,101289.52
2018-01-14T23:29:46.521Z,101296.44
2018-01-14T23:32:14.118Z,101297.06
2018-01-14T23:34:41.713Z,101298.48
2018-01-14T23:37:09.287Z,101304.58
2018-01-14T23:39:36.896Z,101297.98
2018-01-14T23:42:04.481Z,101302.81
2018-01-14T23:44:32.128Z,101302.34
2018-01-14T23:46:59.734Z,101295.25
2018-01-14T23:49:27.349Z,101298.33
2018-01-14T23:51:54.918Z,101288.39
2018-01-14T23:54:22.545Z,101289.84
2018-01-14T23:56:50.120Z,101294.91
2018-01-14T23:59:17.700Z,101285.98
